sensor_id;sensor_type;location;lat;lon;timestamp;temperature;humidity
58339;DHT22;48278;52.704;6.536;2022-09-09T00:01:28;13.60;99.90
58339;DHT22;48278;52.704;6.536;2022-09-09T00:04:16;13.60;99.90
58339;DHT22;48278;52.704;6.536;2022-09-09T00:07:10;13.50;99.90
58339;DHT22;48278;52.704;6.536;2022-09-09T00:09:52;13.50;99.90
58339;DHT22;48278;52.704;6.536;2022-09-09T00:12:39;13.40;99.90
58339;DHT22;48278;52.704;6.536;2022-09-09T00:15:25;13.50;99.90
58339;DHT22;48278;52.704;6.536;2022-09-09T00:23:14;13.50;99.90
58339;DHT22;48278;52.704;6.536;2022-09-09T00:26:04;13.50;99.90
58339;DHT22;48278;52.704;6.536;2022-09-09T00:28:38;13.50;99.90
58339;DHT22;48278;52.704;6.536;2022-09-09T00:31:12;13.50;99.90
58339;DHT22;48278;52.704;6.536;2022-09-09T00:33:39;13.60;99.90
58339;DHT22;48278;52.704;6.536;2022-09-09T00:36:16;13.60;99.90
58339;DHT22;48278;52.704;6.536;2022-09-09T00:38:48;13.70;99.90
58339;DHT22;48278;52.704;6.536;2022-09-09T00:52:47;14.00;99.90
58339;DHT22;48278;52.704;6.536;2022-09-09T00:57:51;14.00;99.90
58339;DHT22;48278;52.704;6.536;2022-09-09T01:00:19;14.10;99.90
58339;DHT22;48278;52.704;6.536;2022-09-09T01:02:56;14.10;99.90
58339;DHT22;48278;52.704;6.536;2022-09-09T01:05:33;14.10;99.90
58339;DHT22;48278;52.704;6.536;2022-09-09T01:08:05;14.10;99.90
58339;DHT22;48278;52.704;6.536;2022-09-09T01:10:41;14.20;99.90
58339;DHT22;48278;52.704;6.536;2022-09-09T01:13:32;14.20;99.90
58339;DHT22;48278;52.704;6.536;2022-09-09T01:16:01;14.30;99.90
58339;DHT22;48278;52.704;6.536;2022-09-09T01:18:43;14.30;99.90
58339;DHT22;48278;52.704;6.536;2022-09-09T01:21:15;14.40;99.90
58339;DHT22;48278;52.704;6.536;2022-09-09T01:24:04;14.40;99.90
58339;DHT22;48278;52.704;6.536;2022-09-09T01:26:45;14.50;99.90
58339;DHT22;48278;52.704;6.536;2022-09-09T01:29:14;14.50;99.90
58339;DHT22;48278;52.704;6.536;2022-09-09T01:34:42;14.40;99.90
58339;DHT22;48278;52.704;6.536;2022-09-09T01:37:09;14.40;99.90
58339;DHT22;48278;52.704;6.536;2022-09-09T01:39:38;14.40;99.90
58339;DHT22;48278;52.704;6.536;2022-09-09T01:42:07;14.40;99.90
58339;DHT22;48278;52.704;6.536;2022-09-09T01:44:34;14.50;99.90
58339;DHT22;48278;52.704;6.536;2022-09-09T01:47:01;14.50;99.90
58339;DHT22;48278;52.704;6.536;2022-09-09T01:49:27;14.40;99.90
58339;DHT22;48278;52.704;6.536;2022-09-09T01:51:55;14.40;99.90
58339;DHT22;48278;52.704;6.536;2022-09-09T01:54:24;14.40;99.90
58339;DHT22;48278;52.704;6.536;2022-09-09T01:57:17;14.40;99.90
58339;DHT22;48278;52.704;6.536;2022-09-09T02:00:23;14.40;99.90
58339;DHT22;48278;52.704;6.536;2022-09-09T02:05:39;14.40;99.90
58339;DHT22;48278;52.704;6.536;2022-09-09T02:08:17;14.40;99.90
58339;DHT22;48278;52.704;6.536;2022-09-09T02:10:58;14.40;99.90
58339;DHT22;48278;52.704;6.536;2022-09-09T02:13:26;14.40;99.90
58339;DHT22;48278;52.704;6.536;2022-09-09T02:16:00;14.40;99.90
58339;DHT22;48278;52.704;6.536;2022-09-09T02:18:39;14.40;99.90
58339;DHT22;48278;52.704;6.536;2022-09-09T02:21:06;14.40;99.90
58339;DHT22;48278;52.704;6.536;2022-09-09T02:23:34;14.40;99.90
58339;DHT22;48278;52.704;6.536;2022-09-09T02:26:00;14.50;99.90
58339;DHT22;48278;52.704;6.536;2022-09-09T02:28:27;14.40;99.90
58339;DHT22;48278;52.704;6.536;2022-09-09T02:30:55;14.50;99.90
58339;DHT22;48278;52.704;6.536;2022-09-09T02:33:28;14.40;99.90
58339;DHT22;48278;52.704;6.536;2022-09-09T02:35:55;14.40;99.90
58339;DHT22;48278;52.704;6.536;2022-09-09T02:38:29;14.50;99.90
58339;DHT22;48278;52.704;6.536;2022-09-09T02:40:57;14.50;99.90
58339;DHT22;48278;52.704;6.536;2022-09-09T02:43:24;14.50;99.90
58339;DHT22;48278;52.704;6.536;2022-09-09T02:48:47;14.50;99.90
58339;DHT22;48278;52.704;6.536;2022-09-09T02:51:24;14.50;99.90
58339;DHT22;48278;52.704;6.536;2022-09-09T02:54:04;14.40;99.90
58339;DHT22;48278;52.704;6.536;2022-09-09T02:56:39;14.50;99.90
58339;DHT22;48278;52.704;6.536;2022-09-09T02:59:05;14.50;99.90
58339;DHT22;48278;52.704;6.536;2022-09-09T03:01:31;14.50;99.90
58339;DHT22;48278;52.704;6.536;2022-09-09T03:03:57;14.50;99.90
58339;DHT22;48278;52.704;6.536;2022-09-09T03:06:23;14.50;99.90
58339;DHT22;48278;52.704;6.536;2022-09-09T03:08:48;14.50;99.90
58339;DHT22;48278;52.704;6.536;2022-09-09T03:11:16;14.50;99.90
58339;DHT22;48278;52.704;6.536;2022-09-09T03:13:42;14.60;99.90
58339;DHT22;48278;52.704;6.536;2022-09-09T03:16:08;14.50;99.90
58339;DHT22;48278;52.704;6.536;2022-09-09T03:18:33;14.50;99.90
58339;DHT22;48278;52.704;6.536;2022-09-09T03:21:00;14.50;99.90
58339;DHT22;48278;52.704;6.536;2022-09-09T03:23:26;14.50;99.90
58339;DHT22;48278;52.704;6.536;2022-09-09T03:25:52;14.50;99.90
58339;DHT22;48278;52.704;6.536;2022-09-09T03:28:17;14.50;99.90
58339;DHT22;48278;52.704;6.536;2022-09-09T03:30:44;14.50;99.90
58339;DHT22;48278;52.704;6.536;2022-09-09T03:33:09;14.50;99.90
58339;DHT22;48278;52.704;6.536;2022-09-09T03:35:35;14.50;99.90
58339;DHT22;48278;52.704;6.536;2022-09-09T03:38:01;14.50;99.90
58339;DHT22;48278;52.704;6.536;2022-09-09T03:40:27;14.50;99.90
58339;DHT22;48278;52.704;6.536;2022-09-09T03:42:53;14.50;99.90
58339;DHT22;48278;52.704;6.536;2022-09-09T03:45:18;14.50;99.90
58339;DHT22;48278;52.704;6.536;2022-09-09T03:47:44;14.50;99.90
58339;DHT22;48278;52.704;6.536;2022-09-09T03:50:10;14.50;99.90
58339;DHT22;48278;52.704;6.536;2022-09-09T03:52:38;14.50;99.90
58339;DHT22;48278;52.704;6.536;2022-09-09T03:55:04;14.50;99.90
58339;DHT22;48278;52.704;6.536;2022-09-09T03:57:31;14.50;99.90
58339;DHT22;48278;52.704;6.536;2022-09-09T03:59:57;14.60;99.90
58339;DHT22;48278;52.704;6.536;2022-09-09T04:02:24;14.50;99.90
58339;DHT22;48278;52.704;6.536;2022-09-09T04:04:50;14.40;99.90
58339;DHT22;48278;52.704;6.536;2022-09-09T04:07:15;14.50;99.90
58339;DHT22;48278;52.704;6.536;2022-09-09T04:09:41;14.40;99.90
58339;DHT22;48278;52.704;6.536;2022-09-09T04:12:07;14.40;99.90
58339;DHT22;48278;52.704;6.536;2022-09-09T04:14:32;14.30;99.90
58339;DHT22;48278;52.704;6.536;2022-09-09T04:16:58;14.30;99.90
58339;DHT22;48278;52.704;6.536;2022-09-09T04:19:25;14.30;99.90
58339;DHT22;48278;52.704;6.536;2022-09-09T04:21:51;14.30;99.90
58339;DHT22;48278;52.704;6.536;2022-09-09T04:24:17;14.30;99.90
58339;DHT22;48278;52.704;6.536;2022-09-09T04:26:43;14.30;99.90
58339;DHT22;48278;52.704;6.536;2022-09-09T04:29:09;14.20;99.90
58339;DHT22;48278;52.704;6.536;2022-09-09T04:31:35;14.20;99.90
58339;DHT22;48278;52.704;6.536;2022-09-09T04:34:01;14.20;99.90
58339;DHT22;48278;52.704;6.536;2022-09-09T04:36:31;14.20;99.90
58339;DHT22;48278;52.704;6.536;2022-09-09T04:38:57;14.10;99.90
58339;DHT22;48278;52.704;6.536;2022-09-09T04:41:23;14.10;99.90
58339;DHT22;48278;52.704;6.536;2022-09-09T04:43:49;14.10;99.90
58339;DHT22;48278;52.704;6.536;2022-09-09T04:46:15;14.10;99.90
58339;DHT22;48278;52.704;6.536;2022-09-09T04:48:44;14.10;99.90
58339;DHT22;48278;52.704;6.536;2022-09-09T04:51:12;14.00;99.90
58339;DHT22;48278;52.704;6.536;2022-09-09T04:53:38;14.00;99.90
58339;DHT22;48278;52.704;6.536;2022-09-09T04:56:13;14.00;99.90
58339;DHT22;48278;52.704;6.536;2022-09-09T04:58:40;13.90;99.90
58339;DHT22;48278;52.704;6.536;2022-09-09T05:03:36;13.90;99.90
58339;DHT22;48278;52.704;6.536;2022-09-09T05:06:20;13.90;99.90
58339;DHT22;48278;52.704;6.536;2022-09-09T05:08:46;13.90;99.90
58339;DHT22;48278;52.704;6.536;2022-09-09T05:13:42;13.80;99.90
58339;DHT22;48278;52.704;6.536;2022-09-09T05:16:08;13.80;99.90
58339;DHT22;48278;52.704;6.536;2022-09-09T05:18:39;13.80;99.90
58339;DHT22;48278;52.704;6.536;2022-09-09T05:21:06;13.70;99.90
58339;DHT22;48278;52.704;6.536;2022-09-09T05:23:33;13.70;99.90
58339;DHT22;48278;52.704;6.536;2022-09-09T05:26:06;13.80;99.90
58339;DHT22;48278;52.704;6.536;2022-09-09T05:28:34;13.80;99.90
58339;DHT22;48278;52.704;6.536;2022-09-09T05:31:05;13.80;99.90
58339;DHT22;48278;52.704;6.536;2022-09-09T05:33:34;13.80;99.90
58339;DHT22;48278;52.704;6.536;2022-09-09T05:38:27;13.90;99.90
58339;DHT22;48278;52.704;6.536;2022-09-09T05:40:53;14.00;99.90
58339;DHT22;48278;52.704;6.536;2022-09-09T05:43:20;14.10;99.90
58339;DHT22;48278;52.704;6.536;2022-09-09T05:45:58;14.10;99.90
58339;DHT22;48278;52.704;6.536;2022-09-09T05:48:28;14.20;99.90
58339;DHT22;48278;52.704;6.536;2022-09-09T05:50:54;14.30;99.90
58339;DHT22;48278;52.704;6.536;2022-09-09T05:53:20;14.30;99.90
58339;DHT22;48278;52.704;6.536;2022-09-09T05:55:46;14.40;99.90
58339;DHT22;48278;52.704;6.536;2022-09-09T05:58:12;14.40;99.90
58339;DHT22;48278;52.704;6.536;2022-09-09T06:00:38;14.40;99.90
58339;DHT22;48278;52.704;6.536;2022-09-09T06:03:04;14.40;99.90
58339;DHT22;48278;52.704;6.536;2022-09-09T06:05:29;14.50;99.90
58339;DHT22;48278;52.704;6.536;2022-09-09T06:07:55;14.50;99.90
58339;DHT22;48278;52.704;6.536;2022-09-09T06:10:22;14.50;99.90
58339;DHT22;48278;52.704;6.536;2022-09-09T06:12:47;14.50;99.90
58339;DHT22;48278;52.704;6.536;2022-09-09T06:15:13;14.50;99.90
58339;DHT22;48278;52.704;6.536;2022-09-09T06:17:39;14.50;99.90
58339;DHT22;48278;52.704;6.536;2022-09-09T06:20:07;14.60;99.90
58339;DHT22;48278;52.704;6.536;2022-09-09T06:22:34;14.60;99.90
58339;DHT22;48278;52.704;6.536;2022-09-09T06:25:00;14.80;99.90
58339;DHT22;48278;52.704;6.536;2022-09-09T06:27:27;14.80;99.90
58339;DHT22;48278;52.704;6.536;2022-09-09T06:29:54;14.80;99.90
58339;DHT22;48278;52.704;6.536;2022-09-09T06:32:19;14.80;99.90
58339;DHT22;48278;52.704;6.536;2022-09-09T06:34:45;14.70;99.90
58339;DHT22;48278;52.704;6.536;2022-09-09T06:37:12;14.70;99.90
58339;DHT22;48278;52.704;6.536;2022-09-09T06:39:38;14.70;99.90
58339;DHT22;48278;52.704;6.536;2022-09-09T06:42:04;14.70;99.90
58339;DHT22;48278;52.704;6.536;2022-09-09T06:44:30;14.70;99.90
58339;DHT22;48278;52.704;6.536;2022-09-09T06:46:57;14.70;99.90
58339;DHT22;48278;52.704;6.536;2022-09-09T06:49:22;14.90;99.90
58339;DHT22;48278;52.704;6.536;2022-09-09T06:51:48;14.90;99.90
58339;DHT22;48278;52.704;6.536;2022-09-09T06:54:14;15.00;99.90
58339;DHT22;48278;52.704;6.536;2022-09-09T06:56:41;15.00;99.90
58339;DHT22;48278;52.704;6.536;2022-09-09T06:59:09;15.10;99.90
58339;DHT22;48278;52.704;6.536;2022-09-09T07:01:36;15.20;99.90
58339;DHT22;48278;52.704;6.536;2022-09-09T07:04:04;15.20;99.90
58339;DHT22;48278;52.704;6.536;2022-09-09T07:06:38;15.30;99.90
58339;DHT22;48278;52.704;6.536;2022-09-09T07:09:07;15.30;99.90
58339;DHT22;48278;52.704;6.536;2022-09-09T07:11:40;15.40;99.90
58339;DHT22;48278;52.704;6.536;2022-09-09T07:14:07;15.40;99.90
58339;DHT22;48278;52.704;6.536;2022-09-09T07:16:34;15.40;99.90
58339;DHT22;48278;52.704;6.536;2022-09-09T07:19:03;15.40;99.90
58339;DHT22;48278;52.704;6.536;2022-09-09T07:21:30;15.50;99.90
58339;DHT22;48278;52.704;6.536;2022-09-09T07:23:56;15.50;99.90
58339;DHT22;48278;52.704;6.536;2022-09-09T07:26:25;15.50;99.90
58339;DHT22;48278;52.704;6.536;2022-09-09T07:28:51;15.50;99.90
58339;DHT22;48278;52.704;6.536;2022-09-09T07:31:21;15.60;99.90
58339;DHT22;48278;52.704;6.536;2022-09-09T07:33:48;15.60;99.90
58339;DHT22;48278;52.704;6.536;2022-09-09T07:36:15;15.80;99.90
58339;DHT22;48278;52.704;6.536;2022-09-09T07:38:42;15.90;99.90
58339;DHT22;48278;52.704;6.536;2022-09-09T07:41:13;16.00;99.90
58339;DHT22;48278;52.704;6.536;2022-09-09T07:43:41;16.20;99.90
58339;DHT22;48278;52.704;6.536;2022-09-09T07:46:08;16.30;99.90
58339;DHT22;48278;52.704;6.536;2022-09-09T07:48:35;16.40;99.90
58339;DHT22;48278;52.704;6.536;2022-09-09T07:53:31;16.40;99.90
58339;DHT22;48278;52.704;6.536;2022-09-09T07:56:06;16.30;99.90
58339;DHT22;48278;52.704;6.536;2022-09-09T07:58:32;16.30;99.90
58339;DHT22;48278;52.704;6.536;2022-09-09T08:00:58;16.50;99.90
58339;DHT22;48278;52.704;6.536;2022-09-09T08:03:24;16.50;99.90
58339;DHT22;48278;52.704;6.536;2022-09-09T08:05:50;16.60;99.90
58339;DHT22;48278;52.704;6.536;2022-09-09T08:08:17;16.80;99.90
58339;DHT22;48278;52.704;6.536;2022-09-09T08:10:42;16.90;99.90
58339;DHT22;48278;52.704;6.536;2022-09-09T08:13:09;17.00;99.90
58339;DHT22;48278;52.704;6.536;2022-09-09T08:15:35;17.10;99.90
58339;DHT22;48278;52.704;6.536;2022-09-09T08:18:05;17.30;99.90
58339;DHT22;48278;52.704;6.536;2022-09-09T08:20:31;17.40;99.90
58339;DHT22;48278;52.704;6.536;2022-09-09T08:22:56;17.30;99.90
58339;DHT22;48278;52.704;6.536;2022-09-09T08:25:22;17.50;99.90
58339;DHT22;48278;52.704;6.536;2022-09-09T08:27:48;17.50;99.90
58339;DHT22;48278;52.704;6.536;2022-09-09T08:30:13;17.50;99.90
58339;DHT22;48278;52.704;6.536;2022-09-09T08:32:39;17.60;99.90
58339;DHT22;48278;52.704;6.536;2022-09-09T08:35:05;17.60;99.90
58339;DHT22;48278;52.704;6.536;2022-09-09T08:37:31;17.80;99.90
58339;DHT22;48278;52.704;6.536;2022-09-09T08:39:57;17.90;99.90
58339;DHT22;48278;52.704;6.536;2022-09-09T08:45:05;18.20;99.90
58339;DHT22;48278;52.704;6.536;2022-09-09T08:50:38;18.40;99.90
58339;DHT22;48278;52.704;6.536;2022-09-09T08:58:28;18.30;99.90
58339;DHT22;48278;52.704;6.536;2022-09-09T09:11:22;18.50;99.90
58339;DHT22;48278;52.704;6.536;2022-09-09T09:13:56;18.60;99.90
58339;DHT22;48278;52.704;6.536;2022-09-09T09:16:34;18.60;99.90
58339;DHT22;48278;52.704;6.536;2022-09-09T09:19:03;18.70;99.90
58339;DHT22;48278;52.704;6.536;2022-09-09T09:24:00;18.70;99.90
58339;DHT22;48278;52.704;6.536;2022-09-09T09:26:31;19.00;99.90
58339;DHT22;48278;52.704;6.536;2022-09-09T09:28:59;19.20;99.90
58339;DHT22;48278;52.704;6.536;2022-09-09T09:31:29;19.20;99.90
58339;DHT22;48278;52.704;6.536;2022-09-09T09:33:56;19.20;99.90
58339;DHT22;48278;52.704;6.536;2022-09-09T09:36:57;19.40;99.90
58339;DHT22;48278;52.704;6.536;2022-09-09T09:39:29;19.20;99.90
58339;DHT22;48278;52.704;6.536;2022-09-09T09:41:55;19.10;99.90
58339;DHT22;48278;52.704;6.536;2022-09-09T09:46:49;18.70;99.90
58339;DHT22;48278;52.704;6.536;2022-09-09T09:49:14;18.70;99.90
58339;DHT22;48278;52.704;6.536;2022-09-09T09:51:40;18.70;99.90
58339;DHT22;48278;52.704;6.536;2022-09-09T09:56:39;18.80;99.90
58339;DHT22;48278;52.704;6.536;2022-09-09T09:59:05;18.80;99.90
58339;DHT22;48278;52.704;6.536;2022-09-09T10:01:32;18.80;99.90
58339;DHT22;48278;52.704;6.536;2022-09-09T10:04:02;19.00;99.90
58339;DHT22;48278;52.704;6.536;2022-09-09T10:06:38;19.20;99.90
58339;DHT22;48278;52.704;6.536;2022-09-09T10:09:29;19.20;99.90
58339;DHT22;48278;52.704;6.536;2022-09-09T10:17:33;19.30;99.90
58339;DHT22;48278;52.704;6.536;2022-09-09T10:20:10;19.40;99.90
58339;DHT22;48278;52.704;6.536;2022-09-09T10:22:52;19.50;99.90
58339;DHT22;48278;52.704;6.536;2022-09-09T10:28:22;19.80;99.90
58339;DHT22;48278;52.704;6.536;2022-09-09T10:33:58;20.00;99.90
58339;DHT22;48278;52.704;6.536;2022-09-09T10:36:27;20.00;99.90
58339;DHT22;48278;52.704;6.536;2022-09-09T10:39:15;20.00;99.90
58339;DHT22;48278;52.704;6.536;2022-09-09T10:44:33;19.70;99.90
58339;DHT22;48278;52.704;6.536;2022-09-09T10:55:41;19.60;99.90
58339;DHT22;48278;52.704;6.536;2022-09-09T10:58:13;19.80;99.90
58339;DHT22;48278;52.704;6.536;2022-09-09T11:00:45;20.00;99.90
58339;DHT22;48278;52.704;6.536;2022-09-09T11:03:27;20.00;99.90
58339;DHT22;48278;52.704;6.536;2022-09-09T11:06:04;19.90;99.90
58339;DHT22;48278;52.704;6.536;2022-09-09T11:08:36;19.90;99.90
58339;DHT22;48278;52.704;6.536;2022-09-09T11:11:26;19.70;99.90
58339;DHT22;48278;52.704;6.536;2022-09-09T11:14:08;19.60;99.90
58339;DHT22;48278;52.704;6.536;2022-09-09T11:16:52;19.50;99.90
58339;DHT22;48278;52.704;6.536;2022-09-09T11:19:34;19.50;99.90
58339;DHT22;48278;52.704;6.536;2022-09-09T11:22:33;19.30;99.90
58339;DHT22;48278;52.704;6.536;2022-09-09T11:25:16;19.30;99.90
58339;DHT22;48278;52.704;6.536;2022-09-09T11:28:11;19.20;99.90
58339;DHT22;48278;52.704;6.536;2022-09-09T11:33:39;19.40;99.90
58339;DHT22;48278;52.704;6.536;2022-09-09T11:38:46;19.80;99.90
58339;DHT22;48278;52.704;6.536;2022-09-09T11:41:13;19.80;99.90
58339;DHT22;48278;52.704;6.536;2022-09-09T11:43:51;20.10;99.90
58339;DHT22;48278;52.704;6.536;2022-09-09T11:46:20;20.50;99.90
58339;DHT22;48278;52.704;6.536;2022-09-09T11:48:59;20.80;99.90
58339;DHT22;48278;52.704;6.536;2022-09-09T11:51:28;21.00;99.90
58339;DHT22;48278;52.704;6.536;2022-09-09T11:59:19;20.90;99.90
58339;DHT22;48278;52.704;6.536;2022-09-09T12:01:53;20.70;99.90
58339;DHT22;48278;52.704;6.536;2022-09-09T12:07:04;20.40;99.90
58339;DHT22;48278;52.704;6.536;2022-09-09T12:19:40;20.70;99.90
58339;DHT22;48278;52.704;6.536;2022-09-09T12:30:36;20.80;99.90
58339;DHT22;48278;52.704;6.536;2022-09-09T12:33:12;20.40;99.90
58339;DHT22;48278;52.704;6.536;2022-09-09T12:35:42;20.50;99.90
58339;DHT22;48278;52.704;6.536;2022-09-09T12:38:13;20.60;99.90
58339;DHT22;48278;52.704;6.536;2022-09-09T12:40:42;20.70;99.90
58339;DHT22;48278;52.704;6.536;2022-09-09T12:43:19;20.90;99.90
58339;DHT22;48278;52.704;6.536;2022-09-09T12:45:50;21.10;99.90
58339;DHT22;48278;52.704;6.536;2022-09-09T12:48:27;20.80;99.90
58339;DHT22;48278;52.704;6.536;2022-09-09T12:50:53;20.70;99.90
58339;DHT22;48278;52.704;6.536;2022-09-09T12:53:33;20.70;99.90
58339;DHT22;48278;52.704;6.536;2022-09-09T12:56:05;20.50;99.90
58339;DHT22;48278;52.704;6.536;2022-09-09T12:58:36;20.70;99.90
58339;DHT22;48278;52.704;6.536;2022-09-09T13:01:04;20.80;99.90
58339;DHT22;48278;52.704;6.536;2022-09-09T13:03:33;21.10;99.90
58339;DHT22;48278;52.704;6.536;2022-09-09T13:06:24;21.20;99.90
58339;DHT22;48278;52.704;6.536;2022-09-09T13:08:51;21.30;99.90
58339;DHT22;48278;52.704;6.536;2022-09-09T13:11:26;21.20;99.90
58339;DHT22;48278;52.704;6.536;2022-09-09T13:13:55;21.30;99.90
58339;DHT22;48278;52.704;6.536;2022-09-09T13:16:30;21.40;99.90
58339;DHT22;48278;52.704;6.536;2022-09-09T13:19:02;21.30;99.90
58339;DHT22;48278;52.704;6.536;2022-09-09T13:21:39;21.10;99.90
58339;DHT22;48278;52.704;6.536;2022-09-09T13:24:19;20.90;99.90
58339;DHT22;48278;52.704;6.536;2022-09-09T13:29:23;20.40;99.90
58339;DHT22;48278;52.704;6.536;2022-09-09T13:31:49;20.20;99.90
58339;DHT22;48278;52.704;6.536;2022-09-09T13:34:32;20.20;99.90
58339;DHT22;48278;52.704;6.536;2022-09-09T13:37:06;20.20;99.90
58339;DHT22;48278;52.704;6.536;2022-09-09T13:39:35;20.20;99.90
58339;DHT22;48278;52.704;6.536;2022-09-09T13:42:02;20.20;99.90
58339;DHT22;48278;52.704;6.536;2022-09-09T13:44:31;20.50;99.90
58339;DHT22;48278;52.704;6.536;2022-09-09T13:47:20;20.70;99.90
58339;DHT22;48278;52.704;6.536;2022-09-09T13:49:47;20.80;99.90
58339;DHT22;48278;52.704;6.536;2022-09-09T13:52:15;20.70;99.90
58339;DHT22;48278;52.704;6.536;2022-09-09T13:54:42;20.70;99.90
58339;DHT22;48278;52.704;6.536;2022-09-09T13:57:22;20.70;99.90
58339;DHT22;48278;52.704;6.536;2022-09-09T13:59:48;20.80;99.90
58339;DHT22;48278;52.704;6.536;2022-09-09T14:02:17;20.80;99.90
58339;DHT22;48278;52.704;6.536;2022-09-09T14:04:44;20.90;99.90
58339;DHT22;48278;52.704;6.536;2022-09-09T14:07:17;20.80;99.90
58339;DHT22;48278;52.704;6.536;2022-09-09T14:09:43;20.80;99.90
58339;DHT22;48278;52.704;6.536;2022-09-09T14:12:11;20.60;99.90
58339;DHT22;48278;52.704;6.536;2022-09-09T14:14:37;20.50;99.90
58339;DHT22;48278;52.704;6.536;2022-09-09T14:17:03;20.60;99.90
58339;DHT22;48278;52.704;6.536;2022-09-09T14:19:29;20.50;99.90
58339;DHT22;48278;52.704;6.536;2022-09-09T14:21:56;20.40;99.90
58339;DHT22;48278;52.704;6.536;2022-09-09T14:24:22;20.40;99.90
58339;DHT22;48278;52.704;6.536;2022-09-09T14:26:48;20.40;99.90
58339;DHT22;48278;52.704;6.536;2022-09-09T14:29:14;20.20;99.90
58339;DHT22;48278;52.704;6.536;2022-09-09T14:31:40;20.10;99.90
58339;DHT22;48278;52.704;6.536;2022-09-09T14:34:06;20.10;99.90
58339;DHT22;48278;52.704;6.536;2022-09-09T14:36:32;20.00;99.90
58339;DHT22;48278;52.704;6.536;2022-09-09T14:38:58;20.10;99.90
58339;DHT22;48278;52.704;6.536;2022-09-09T14:41:30;20.10;99.90
58339;DHT22;48278;52.704;6.536;2022-09-09T14:43:55;20.10;99.90
58339;DHT22;48278;52.704;6.536;2022-09-09T14:46:28;20.20;99.90
58339;DHT22;48278;52.704;6.536;2022-09-09T14:48:59;20.10;99.90
58339;DHT22;48278;52.704;6.536;2022-09-09T14:51:31;19.90;99.90
58339;DHT22;48278;52.704;6.536;2022-09-09T14:53:58;19.90;99.90
58339;DHT22;48278;52.704;6.536;2022-09-09T14:56:26;19.80;99.90
58339;DHT22;48278;52.704;6.536;2022-09-09T14:58:55;19.80;99.90
58339;DHT22;48278;52.704;6.536;2022-09-09T15:01:21;19.90;99.90
58339;DHT22;48278;52.704;6.536;2022-09-09T15:03:54;19.90;99.90
58339;DHT22;48278;52.704;6.536;2022-09-09T15:06:26;19.90;99.90
58339;DHT22;48278;52.704;6.536;2022-09-09T15:08:53;19.90;99.90
58339;DHT22;48278;52.704;6.536;2022-09-09T15:11:20;19.90;99.90
58339;DHT22;48278;52.704;6.536;2022-09-09T15:13:51;19.80;99.90
58339;DHT22;48278;52.704;6.536;2022-09-09T15:16:19;19.60;99.90
58339;DHT22;48278;52.704;6.536;2022-09-09T15:18:45;19.60;99.90
58339;DHT22;48278;52.704;6.536;2022-09-09T15:21:12;19.50;99.90
58339;DHT22;48278;52.704;6.536;2022-09-09T15:23:38;19.40;99.90
58339;DHT22;48278;52.704;6.536;2022-09-09T15:26:04;19.40;99.90
58339;DHT22;48278;52.704;6.536;2022-09-09T15:28:32;19.30;99.90
58339;DHT22;48278;52.704;6.536;2022-09-09T15:31:13;19.20;99.90
58339;DHT22;48278;52.704;6.536;2022-09-09T15:34:04;19.10;99.90
58339;DHT22;48278;52.704;6.536;2022-09-09T15:36:35;18.80;99.90
58339;DHT22;48278;52.704;6.536;2022-09-09T15:39:03;18.80;99.90
58339;DHT22;48278;52.704;6.536;2022-09-09T15:41:29;18.80;99.90
58339;DHT22;48278;52.704;6.536;2022-09-09T15:43:57;18.90;99.90
58339;DHT22;48278;52.704;6.536;2022-09-09T15:48:56;19.10;99.90
58339;DHT22;48278;52.704;6.536;2022-09-09T15:51:23;19.30;99.90
58339;DHT22;48278;52.704;6.536;2022-09-09T15:53:57;19.60;99.90
58339;DHT22;48278;52.704;6.536;2022-09-09T15:56:25;19.90;99.90
58339;DHT22;48278;52.704;6.536;2022-09-09T15:58:51;20.00;99.90
58339;DHT22;48278;52.704;6.536;2022-09-09T16:01:18;20.20;99.90
58339;DHT22;48278;52.704;6.536;2022-09-09T16:03:45;20.20;99.90
58339;DHT22;48278;52.704;6.536;2022-09-09T16:06:20;20.00;99.90
58339;DHT22;48278;52.704;6.536;2022-09-09T16:08:49;20.00;99.90
58339;DHT22;48278;52.704;6.536;2022-09-09T16:11:24;19.80;99.90
58339;DHT22;48278;52.704;6.536;2022-09-09T16:13:52;19.70;99.90
58339;DHT22;48278;52.704;6.536;2022-09-09T16:16:20;19.60;99.90
58339;DHT22;48278;52.704;6.536;2022-09-09T16:18:53;19.50;99.90
58339;DHT22;48278;52.704;6.536;2022-09-09T16:21:22;19.40;99.90
58339;DHT22;48278;52.704;6.536;2022-09-09T16:23:50;19.00;99.90
58339;DHT22;48278;52.704;6.536;2022-09-09T16:26:19;18.90;99.90
58339;DHT22;48278;52.704;6.536;2022-09-09T16:28:45;18.80;99.90
58339;DHT22;48278;52.704;6.536;2022-09-09T16:31:15;18.70;99.90
58339;DHT22;48278;52.704;6.536;2022-09-09T16:33:42;18.70;99.90
58339;DHT22;48278;52.704;6.536;2022-09-09T16:36:13;18.70;99.90
58339;DHT22;48278;52.704;6.536;2022-09-09T16:38:40;18.60;99.90
58339;DHT22;48278;52.704;6.536;2022-09-09T16:41:07;18.60;99.90
58339;DHT22;48278;52.704;6.536;2022-09-09T16:43:34;18.50;99.90
58339;DHT22;48278;52.704;6.536;2022-09-09T16:46:11;18.50;99.90
58339;DHT22;48278;52.704;6.536;2022-09-09T16:48:40;18.40;99.90
58339;DHT22;48278;52.704;6.536;2022-09-09T16:51:11;18.40;99.90
58339;DHT22;48278;52.704;6.536;2022-09-09T16:53:37;18.40;99.90
58339;DHT22;48278;52.704;6.536;2022-09-09T16:56:14;18.30;99.90
58339;DHT22;48278;52.704;6.536;2022-09-09T16:58:40;18.30;99.90
58339;DHT22;48278;52.704;6.536;2022-09-09T17:01:08;18.10;99.90
58339;DHT22;48278;52.704;6.536;2022-09-09T17:03:38;18.00;99.90
58339;DHT22;48278;52.704;6.536;2022-09-09T17:06:09;17.90;99.90
58339;DHT22;48278;52.704;6.536;2022-09-09T17:08:35;17.80;99.90
58339;DHT22;48278;52.704;6.536;2022-09-09T17:11:01;17.80;99.90
58339;DHT22;48278;52.704;6.536;2022-09-09T17:13:27;17.80;99.90
58339;DHT22;48278;52.704;6.536;2022-09-09T17:15:53;17.80;99.90
58339;DHT22;48278;52.704;6.536;2022-09-09T17:18:18;17.70;99.90
58339;DHT22;48278;52.704;6.536;2022-09-09T17:20:52;17.70;99.90
58339;DHT22;48278;52.704;6.536;2022-09-09T17:23:17;17.70;99.90
58339;DHT22;48278;52.704;6.536;2022-09-09T17:25:43;17.70;99.90
58339;DHT22;48278;52.704;6.536;2022-09-09T17:28:10;17.70;99.90
58339;DHT22;48278;52.704;6.536;2022-09-09T17:30:36;17.70;99.90
58339;DHT22;48278;52.704;6.536;2022-09-09T17:33:11;17.70;99.90
58339;DHT22;48278;52.704;6.536;2022-09-09T17:35:37;17.70;99.90
58339;DHT22;48278;52.704;6.536;2022-09-09T17:38:02;17.70;99.90
58339;DHT22;48278;52.704;6.536;2022-09-09T17:40:28;17.70;99.90
58339;DHT22;48278;52.704;6.536;2022-09-09T17:42:55;17.70;99.90
58339;DHT22;48278;52.704;6.536;2022-09-09T17:45:21;17.70;99.90
58339;DHT22;48278;52.704;6.536;2022-09-09T17:47:54;17.70;99.90
58339;DHT22;48278;52.704;6.536;2022-09-09T17:50:20;17.70;99.90
58339;DHT22;48278;52.704;6.536;2022-09-09T17:52:48;17.60;99.90
58339;DHT22;48278;52.704;6.536;2022-09-09T17:55:14;17.60;99.90